Yuma, AZ

1:29 AM MST en Diciembre 22, 2014 (GMT -0700)
Caballero Park | Change Station
CLOSE
Current Station
Estación meteorológica personal
Location: Yuma, AZ
Altura: 200 ft
Estaciones meteorológicas cercanas

Alt 200 ft 32.67 °N, 114.63 °W | Updated 7 minutes ago

Muy nublado
Muy nublado
52.9 ° F
Sensación térmica 52.9 ° F
N
0.0
Viento Variable Viento desde ESE

Hoy
Alta -- | Baja -- ° F
--% Posibilidad de precipitaciones
Ayer
Alta -- | Baja -- ° F
Precip. -- pul
7:37 AM 5:37 PM
Luna nueva, 0% visible
Presión 30.03 pul
Visibilidad 10.0 Millas
Nubes Muy nublado 25000 ft
Punto de rocío 43 ° F
Humedad 70%
Precipitaciones 0.00 pul
Espesor de la nieve No disponible.
UV 0 de una escala de 12
Polen 6.90 de una escala de 12
Calidad del aire No disponible.
Flu Activity No disponible.
METAR KNYL 220757Z 00000KT 10SM BKN250 13/06 A3003 RMK AO2 SLP169 T01280056 $

More Conditions Fewer Conditions

Presión 30.03 pul
Visibilidad 10.0 Millas
Nubes Muy nublado 25000 ft
Punto de rocío 43 ° F
Humedad 70%
Precipitaciones 0.00 pul
Espesor de la nieve No disponible.
UV 0 de una escala de 12
Polen 6.90 de una escala de 12
Calidad del aire No disponible.
Flu Activity No disponible.
METAR KNYL 220757Z 00000KT 10SM BKN250 13/06 A3003 RMK AO2 SLP169 T01280056 $

More Conditions Fewer Conditions

10-Day Weather Forecast

Almanac

Astronomía

Dec. 22, 2014 Salida Puesta
Hora real
Crepúsculo civil
Crepúsculo náutico
Crepúsculo astronómico
Luna
Horas de luz
Horas de luz
Tomorrow will be .
, % of the Moon is Illuminated

Extremos de hoy

Máximos del estado Bajos del estado

Community

WunderPhotos

Upload Photos

1,779,564 ¡fotos cargadas!

WunderBlogs® & News

Nearby

Calidad del aire

  Calidad del aire Índice AQ Contaminante
Not available.

Grosos de nieve

Estación Profundido Altura

Actividad de terremotos

Ciudad Distance Mag. Tiempo y dato
Magnitud mínima muestra es 2,5.

Temperaturas de aguas costeras

Lugar Temperatura

Estaciones meteorológicas cercanas